Latest Weather Observations for Evans Head

IDN60801

Issued at 10:32 pm EDT Thursday 3 December 2020 (issued every 10 minutes, with the page automatically refreshed every 10 minutes)

About weather observations | Map of weather stations | Latest weather observations for NSW | Other Formats
Station Details ID: 058212 Name: EVANS HEAD RAAF BOMBING RANGE AWS Lat: -29.18 Lon: 153.40 Height: 62.5 m
Data from the previous 72 hours. | See also: Recent months at Evans Head
Date/Time
EDT
Temp
°C
App
Temp
°C
Dew
Point
°C
Rel
Hum
%
Delta-T
°C
Wind Press
QNH
hPa
Press
MSL
hPa
Rain since
9am
mm
Dir  Spd
km/h
Gust
km/h
Spd
kts
Gust
kts
03/10:30pm 22.5 24.7 21.1 92 0.9 SW 11 15 6 8 1019.9 1019.6 0.2
03/10:00pm 22.5 24.7 21.1 92 0.9 SW 11 15 6 8 1019.4 1019.1 0.2
03/09:30pm 22.5 24.7 21.1 92 0.9 WSW 11 13 6 7 1018.9 1018.6 0.2
03/09:00pm 22.7 25.9 21.2 91 1.0 SSW 6 9 3 5 1018.4 1018.1 0.2
03/08:30pm 22.8 25.5 21.3 91 1.0 SW 9 15 5 8 1018.8 1018.5 0.2
03/08:00pm 22.7 24.2 21.3 92 0.9 SSW 15 20 8 11 1018.7 1018.4 0.2
03/07:30pm 22.7 24.2 21.3 92 0.9 SSW 15 20 8 11 1018.3 1018.0 0.2
03/07:00pm 22.8 23.9 21.3 91 1.0 S 17 24 9 13 1018.1 1017.8 0.2
03/06:30pm 22.7 23.1 21.0 90 1.1 S 20 28 11 15 1018.3 1018.0 0.2
03/06:00pm 23.8 24.4 21.1 85 1.8 S 19 28 10 15 1018.2 1017.9 0.2
03/05:30pm 22.8 23.3 20.9 89 1.2 S 19 26 10 14 1017.9 1017.6 0.2
03/05:00pm 23.2 23.5 20.7 86 1.6 S 20 32 11 17 1018.0 1017.7 0.2
03/04:30pm 24.7 24.7 21.6 83 2.1 S 24 32 13 17 1017.9 1017.6 0.2
03/04:00pm 24.1 23.1 21.2 84 1.9 S 28 37 15 20 1018.0 1017.7 0.2
03/03:30pm 24.7 24.7 21.6 83 2.1 S 24 35 13 19 1018.5 1018.2 0.2
03/03:00pm 23.5 22.8 21.0 86 1.6 S 26 35 14 19 1018.6 1018.3 0.2
03/02:30pm 23.2 22.8 20.9 87 1.5 S 24 33 13 18 1018.6 1018.3 0.2
03/02:00pm 23.5 22.8 21.0 86 1.6 S 26 35 14 19 1018.7 1018.4 0.2
03/01:30pm 25.0 24.2 21.7 82 2.2 S 28 37 15 20 1018.9 1018.6 0.2
03/01:00pm 24.3 23.3 21.2 83 2.0 S 28 39 15 21 1019.2 1018.9 0.2
03/12:30pm 23.4 23.0 20.9 86 1.6 S 24 35 13 19 1019.5 1019.2 0.2
03/12:00pm 23.0 22.6 20.9 88 1.4 S 24 33 13 18 1019.6 1019.3 0.2
03/11:30am 22.8 23.8 21.1 90 1.1 S 17 24 9 13 1020.0 1019.7 0.2
03/11:00am 22.7 23.7 21.7 94 0.7 S 19 26 10 14 1020.0 1019.7 0.2
03/10:30am 22.1 23.1 21.1 94 0.7 SSW 17 22 9 12 1020.2 1019.9 0.2
03/10:00am 22.1 23.0 20.9 93 0.8 SSW 17 26 9 14 1020.3 1020.0 0.0
03/09:30am 21.8 23.0 20.6 93 0.8 SSW 15 22 8 12 1020.4 1020.1 0.0
03/09:00am 21.8 23.8 20.8 94 0.6 SW 11 19 6 10 1020.4 1020.1 3.2
03/08:30am 21.6 21.8 20.6 94 0.6 SSW 20 28 11 15 1020.2 1019.9 3.2
03/08:00am 21.5 22.1 20.3 93 0.8 SSW 17 26 9 14 1020.2 1019.9 3.2
03/07:30am 21.1 21.6 20.1 94 0.6 S 17 24 9 13 1019.8 1019.5 3.2
03/07:00am 20.8 22.4 20.0 95 0.5 SSW 11 17 6 9 1019.8 1019.5 3.2
03/06:30am 20.6 21.8 19.8 95 0.5 SSW 13 19 7 10 1019.6 1019.3 3.2
03/06:00am 20.3 21.0 19.6 96 0.4 SSW 15 20 8 11 1019.4 1019.1 3.2
03/05:30am 20.2 21.2 19.5 96 0.4 SSW 13 17 7 9 1019.6 1019.3 3.2
03/05:00am 20.2 21.2 19.5 96 0.4 SSW 13 17 7 9 1019.8 1019.5 3.2
03/04:30am 20.2 21.2 19.5 96 0.4 SSW 13 20 7 11 1019.7 1019.4 3.0
03/04:00am 20.2 20.8 19.5 96 0.4 SW 15 24 8 13 1019.8 1019.5 3.0
03/03:30am 20.2 21.2 19.5 96 0.4 SW 13 20 7 11 1019.7 1019.4 2.8
03/03:00am 20.2 21.2 19.5 96 0.4 SW 13 20 7 11 1019.9 1019.6 2.8
03/02:30am 20.4 21.5 19.6 95 0.5 WSW 13 22 7 12 1020.1 1019.8 2.8
03/02:00am 20.5 21.1 19.5 94 0.6 SW 15 22 8 12 1019.9 1019.6 2.8
03/01:30am 20.7 22.1 19.5 93 0.8 SW 11 17 6 9 1019.9 1019.6 2.8
03/01:00am 20.7 22.4 19.4 92 0.8 WSW 9 15 5 8 1020.3 1020.0 2.8
03/12:30am 20.5 21.4 19.2 92 0.8 SW 13 22 7 12 1020.8 1020.5 2.8
03/12:00am 20.4 19.9 19.2 93 0.8 S 20 30 11 16 1020.5 1020.2 2.8
 
Date/Time
EDT
Temp
°C
App
Temp
°C
Dew
Point
°C
Rel
Hum
%
Delta-T
°C
Wind Press
QNH
hPa
Press
MSL
hPa
Rain since
9am
mm
Dir  Spd
km/h
Gust
km/h
Spd
kts
Gust
kts
02/11:30pm 20.2 18.5 18.9 92 0.8 S 26 37 14 20 1020.4 1020.1 2.8
02/11:00pm 20.3 17.9 19.1 93 0.8 S 30 41 16 22 1021.0 1020.7 2.8
02/10:30pm 20.1 16.7 19.1 94 0.6 S 35 56 19 30 1021.2 1020.9 2.8
02/10:29pm 20.1 16.7 19.1 94 0.6 S 35 56 19 30 1021.1 1020.8 2.8
02/10:00pm 20.2 17.6 19.5 96 0.4 S 32 43 17 23 1021.3 1021.0 2.8
02/09:30pm 20.2 18.4 19.5 96 0.4 S 28 39 15 21 1021.0 1020.7 2.8
02/09:00pm 20.4 19.0 19.7 96 0.4 S 26 37 14 20 1020.8 1020.5 2.6
02/08:30pm 20.5 17.9 19.8 96 0.4 S 33 44 18 24 1020.0 1019.7 2.2
02/08:00pm 20.6 17.2 19.8 95 0.5 S 37 50 20 27 1019.5 1019.2 1.4
02/07:37pm 20.9 16.8 19.9 94 0.6 S 41 63 22 34 1018.6 1018.3 0.4
02/07:30pm 21.2 17.1 20.0 93 0.8 S 41 56 22 30 1018.4 1018.1 0.0
02/07:00pm 21.7 18.5 20.2 91 1.0 S 37 54 20 29 1018.0 1017.7 0.0
02/06:52pm 21.8 19.0 20.3 91 1.0 S 35 54 19 29 1018.0 1017.7 0.0
02/06:30pm 22.7 21.3 20.4 87 1.5 S 28 43 15 23 1017.0 1016.7 0.0
02/06:00pm 24.6 25.4 20.7 79 2.6 ENE 17 26 9 14 1015.8 1015.5 0.0
02/05:30pm 25.4 26.2 20.6 75 3.1 NE 17 26 9 14 1014.3 1014.0 0.0
02/05:00pm 26.5 27.5 21.0 72 3.6 NE 17 28 9 15 1014.0 1013.7 0.0
02/04:30pm 27.9 29.1 21.4 67 4.3 NNE 17 28 9 15 1012.9 1012.7 0.0
02/04:00pm 31.3 31.8 22.0 57 6.3 NNE 22 33 12 18 1012.5 1012.3 0.0
02/03:30pm 32.1 33.0 21.9 54 6.9 NNE 20 33 11 18 1012.3 1012.1 0.0
02/03:00pm 33.2 34.0 21.4 50 8.0 NNE 19 30 10 16 1012.5 1012.3 0.0
02/02:30pm 34.8 36.4 22.2 48 8.7 NNE 17 28 9 15 1013.3 1013.0 0.0
02/02:00pm 34.7 36.8 22.4 48 8.5 NNE 15 26 8 14 1013.8 1013.5 0.0
02/01:30pm 35.7 38.1 22.3 46 9.2 NNE 13 22 7 12 1014.1 1013.8 0.0
02/01:00pm 34.0 35.4 21.8 49 8.3 N 17 28 9 15 1014.6 1014.3 0.0
02/12:30pm 32.6 33.3 21.5 52 7.5 NNE 20 32 11 17 1014.9 1014.6 0.0
02/12:00pm 31.2 32.5 21.7 57 6.4 NE 17 30 9 16 1015.3 1015.0 0.0
02/11:30am 30.9 31.9 22.2 59 5.9 NE 20 30 11 16 1015.6 1015.3 0.0
02/11:00am 30.8 32.0 22.1 59 5.9 NNE 19 28 10 15 1015.8 1015.5 0.0
02/10:30am 28.3 30.3 22.3 70 4.1 ENE 15 24 8 13 1015.9 1015.6 0.0
02/10:00am 28.4 30.5 21.7 67 4.5 ENE 13 20 7 11 1015.8 1015.5 0.0
02/09:30am 28.1 31.5 21.6 68 4.4 N 6 9 3 5 1015.6 1015.3 0.0
02/09:00am 26.6 29.9 21.4 73 3.5 WNW 6 11 3 6 1015.6 1015.3 0.0
02/08:30am 26.7 29.3 21.2 72 3.7 W 9 17 5 9 1015.5 1015.2 0.0
02/08:00am 25.5 27.2 21.0 76 3.0 WSW 13 17 7 9 1015.6 1015.3 0.0
02/07:30am 24.6 26.8 21.1 81 2.3 WSW 11 17 6 9 1015.1 1014.8 0.0
02/07:00am 23.2 25.3 20.9 87 1.5 SW 11 20 6 11 1014.8 1014.5 0.0
02/06:30am 21.5 23.5 20.8 96 0.5 W 11 13 6 7 1014.5 1014.2 0.0
02/06:00am 21.0 23.7 20.3 96 0.5 NE 6 9 3 5 1013.7 1013.4 0.0
02/05:30am 21.0 23.5 20.3 96 0.5 S 7 11 4 6 1013.9 1013.6 0.0
02/05:00am 20.6 22.9 19.9 96 0.4 SSW 7 11 4 6 1013.9 1013.6 0.0
02/04:30am 20.7 21.6 20.0 96 0.4 SSW 15 19 8 10 1013.1 1012.9 0.0
02/04:00am 20.5 22.0 19.7 95 0.5 S 11 17 6 9 1012.4 1012.2 0.0
02/03:30am 21.1 23.4 19.9 93 0.8 SSW 7 11 4 6 1011.9 1011.7 0.0
02/03:00am 21.3 23.5 20.3 94 0.6 NNW 9 11 5 6 1011.5 1011.2 0.0
02/02:30am 21.4 23.1 20.2 93 0.8 N 11 15 6 8 1011.2 1010.9 0.0
02/02:00am 21.5 22.9 20.3 93 0.8 N 13 15 7 8 1011.2 1010.9 0.0
02/01:30am 21.7 22.7 20.3 92 0.9 N 15 17 8 9 1011.6 1011.3 0.0
02/01:00am 21.7 23.1 20.3 92 0.9 N 13 19 7 10 1011.9 1011.7 0.0
02/12:30am 21.8 24.0 20.4 92 0.9 N 9 13 5 7 1012.1 1011.9 0.0
02/12:00am 22.0 23.9 20.5 91 1.0 N 11 17 6 9 1012.2 1012.0 0.0
 
Date/Time
EDT
Temp
°C
App
Temp
°C
Dew
Point
°C
Rel
Hum
%
Delta-T
°C
Wind Press
QNH
hPa
Press
MSL
hPa
Rain since
9am
mm
Dir  Spd
km/h
Gust
km/h
Spd
kts
Gust
kts
01/11:30pm 22.2 23.4 20.7 91 1.0 N 15 24 8 13 1012.1 1011.9 0.0
01/11:00pm 22.2 24.1 20.5 90 1.1 N 11 20 6 11 1012.5 1012.3 0.0
01/10:30pm 22.5 22.4 20.8 90 1.1 N 22 30 12 16 1012.2 1012.0 0.0
01/10:00pm 22.6 21.7 20.7 89 1.2 N 26 37 14 20 1011.9 1011.7 0.0
01/09:30pm 23.0 21.8 20.9 88 1.4 N 28 39 15 21 1011.7 1011.4 0.0
01/09:00pm 23.2 22.4 20.9 87 1.5 N 26 39 14 21 1011.5 1011.2 0.0
01/08:30pm 23.3 22.6 21.0 87 1.5 NNE 26 41 14 22 1011.4 1011.1 0.0
01/08:00pm 23.1 22.6 20.8 87 1.5 NNE 24 35 13 19 1011.4 1011.1 0.0
01/07:30pm 23.3 22.9 21.0 87 1.5 NNE 24 39 13 21 1011.2 1010.9 0.0
01/07:00pm 23.8 23.4 20.9 84 1.9 NNE 24 41 13 22 1011.1 1010.8 0.0
01/06:30pm 24.5 24.3 20.6 79 2.6 NNE 22 35 12 19 1010.9 1010.6 0.0
01/06:00pm 25.4 24.8 20.6 75 3.2 NNE 24 39 13 21 1010.8 1010.5 0.0
01/05:30pm 25.9 25.3 20.5 72 3.5 NNE 24 39 13 21 1010.8 1010.5 0.0
01/05:00pm 26.9 27.4 21.2 71 3.8 NNE 20 33 11 18 1010.9 1010.6 0.0
01/04:30pm 26.7 25.7 21.2 72 3.7 NE 28 43 15 23 1011.3 1011.0 0.0
01/04:00pm 26.5 25.8 21.0 72 3.6 NE 26 39 14 21 1011.9 1011.7 0.0
01/03:30pm 26.7 26.1 20.5 69 4.1 NE 24 37 13 20 1012.2 1012.0 0.0
01/03:00pm 26.8 26.1 20.2 67 4.3 NE 24 33 13 18 1012.6 1012.4 0.0
01/02:30pm 27.3 26.8 19.9 64 4.8 NE 22 35 12 19 1013.0 1012.8 0.0
01/02:00pm 26.8 25.8 19.7 65 4.6 NE 24 33 13 18 1013.4 1013.1 0.0
01/01:30pm 26.1 25.1 19.7 68 4.2 ENE 24 32 13 17 1013.9 1013.6 0.0
01/01:00pm 25.1 23.9 19.2 70 3.8 ENE 24 33 13 18 1014.6 1014.3 0.0
01/12:30pm 26.9 26.9 19.8 65 4.6 E 19 26 10 14 1015.1 1014.8 0.0
01/12:00pm 24.9 25.7 19.1 70 3.7 ESE 13 19 7 10 1015.6 1015.3 0.0
01/11:30am 26.3 28.8 20.2 69 4.0 ESE 7 11 4 6 1016.1 1015.8 0.0
01/11:00am 25.9 29.3 19.3 67 4.2 CALM 0 7 0 4 1016.5 1016.2 0.0
01/10:30am 25.3 27.5 19.2 69 3.9 E 6 9 3 5 1017.0 1016.7 0.0
01/10:00am 25.2 27.5 18.6 67 4.2 WNW 4 7 2 4 1017.0 1016.7 0.0
01/09:30am 25.4 27.6 19.3 69 3.9 NW 6 11 3 6 1017.1 1016.8 0.0
01/09:00am 24.7 26.8 19.3 72 3.5 WNW 7 11 4 6 1017.1 1016.8 0.0
01/08:30am 22.8 24.5 18.6 77 2.7 W 7 13 4 7 1017.4 1017.1 0.0
01/08:00am 22.2 23.9 18.6 80 2.3 WSW 7 11 4 6 1017.3 1017.0 0.0
01/07:30am 21.6 22.7 18.8 84 1.8 WSW 11 13 6 7 1017.1 1016.8 0.0
01/07:00am 21.0 22.4 18.6 86 1.5 WSW 9 15 5 8 1016.6 1016.3 0.0
01/06:30am 20.4 22.2 18.7 90 1.1 WSW 7 9 4 5 1016.3 1016.0 0.0
01/06:00am 20.2 22.0 18.7 91 0.9 W 7 9 4 5 1016.0 1015.7 0.0
01/05:30am 20.2 22.3 18.1 88 1.3 SW 4 7 2 4 1016.0 1015.7 0.0
01/05:00am 20.2 21.8 17.8 86 1.5 SE 6 11 3 6 1015.8 1015.5 0.0
01/04:30am 20.6 21.4 18.2 86 1.5 SE 11 19 6 10 1015.3 1015.0 0.0
01/04:00am 20.7 21.6 18.3 86 1.5 SE 11 17 6 9 1015.1 1014.8 0.0
01/03:30am 20.6 22.2 18.2 86 1.5 SSE 7 11 4 6 1015.4 1015.1 0.0
01/03:00am 20.7 22.2 18.1 85 1.6 SSE 7 11 4 6 1015.4 1015.1 0.0
01/02:30am 20.8 22.6 18.2 85 1.6 SSE 6 9 3 5 1015.5 1015.2 0.0
01/02:00am 20.7 21.8 18.1 85 1.6 S 9 11 5 6 1015.8 1015.5 0.0
01/01:30am 20.8 22.2 17.8 83 1.9 SSE 7 9 4 5 1015.9 1015.6 0.0
01/01:00am 20.7 22.1 17.9 84 1.7 S 7 9 4 5 1016.1 1015.8 0.0
01/12:30am 20.9 22.0 17.9 83 1.9 SSE 9 13 5 7 1016.3 1016.0 0.0
01/12:00am 20.8 21.9 18.0 84 1.7 SSE 9 11 5 6 1016.6 1016.3 0.0
 
Date/Time
EDT
Temp
°C
App
Temp
°C
Dew
Point
°C
Rel
Hum
%
Delta-T
°C
Wind Press
QNH
hPa
Press
MSL
hPa
Rain since
9am
mm
Dir  Spd
km/h
Gust
km/h
Spd
kts
Gust
kts
30/11:30pm 21.0 22.2 18.2 84 1.7 SSE 9 13 5 7 1016.8 1016.5 0.0
30/11:00pm 21.0 22.2 18.2 84 1.7 SSE 9 13 5 7 1016.9 1016.6 0.0

Other formats

Comma delimited format used in spreadsheet applications
http://www.bom.gov.au/fwo/IDN60801/IDN60801.94598.axf

JavaScript Object Notation format (JSON) in row-major order
http://www.bom.gov.au/fwo/IDN60801/IDN60801.94598.json

Data quality

Most of these data are generated automatically and are frequently updated. Quality checks on data are not normally performed. It is possible for incorrect values to appear. Refer to information at About Latest Weather Observations and please check the disclaimer before using these data.